createdAt,value
2022-10-19T00:01:53.542Z,139.06
2022-10-19T00:07:24.997Z,139.76
2022-10-19T00:12:56.824Z,139.41
2022-10-19T00:18:28.567Z,141.06
2022-10-19T00:24:00.266Z,142.14
2022-10-19T00:29:31.987Z,142.51
2022-10-19T00:35:03.892Z,142.38
2022-10-19T00:40:35.840Z,143.12
2022-10-19T00:46:07.680Z,142.99
2022-10-19T00:51:39.764Z,142.75
2022-10-19T00:57:11.534Z,142.02
2022-10-19T01:02:43.365Z,140.70
2022-10-19T01:08:15.131Z,140.11
2022-10-19T01:13:46.868Z,139.88
2022-10-19T01:19:18.754Z,140.47
2022-10-19T01:24:50.718Z,139.88
2022-10-19T01:30:23.444Z,139.53
2022-10-19T01:35:55.282Z,137.91
2022-10-19T01:46:57.208Z,138.14
2022-10-19T01:52:29.014Z,137.23
2022-10-19T01:58:00.615Z,137.91
2022-10-19T02:03:32.478Z,138.26
2022-10-19T02:09:04.176Z,137.91
2022-10-19T02:14:36.279Z,138.49
2022-10-19T02:20:08.170Z,137.57
2022-10-19T02:25:40.098Z,138.03
2022-10-19T02:31:12.015Z,137.80
2022-10-19T02:36:43.560Z,138.60
2022-10-19T02:42:15.188Z,138.83
2022-10-19T02:47:47.361Z,138.83
2022-10-19T02:53:19.192Z,138.26
2022-10-19T02:58:50.895Z,138.37
2022-10-19T03:04:22.503Z,139.41
2022-10-19T03:09:54.372Z,139.41
2022-10-19T03:15:25.926Z,138.49
2022-10-19T03:20:58.929Z,138.60
2022-10-19T03:26:29.430Z,139.53
2022-10-19T03:32:01.325Z,139.53
2022-10-19T03:37:33.445Z,139.29
2022-10-19T03:43:04.962Z,139.06
2022-10-19T03:48:36.983Z,139.06
2022-10-19T03:56:22.049Z,138.60
2022-10-19T04:01:53.301Z,141.42
2022-10-19T04:07:24.637Z,140.82
2022-10-19T04:12:56.079Z,139.53
2022-10-19T04:18:27.914Z,140.23
2022-10-19T04:23:59.763Z,139.64
2022-10-19T04:29:31.448Z,139.76
2022-10-19T04:35:03.232Z,139.64
2022-10-19T04:40:35.149Z,139.29
2022-10-19T04:46:06.939Z,139.41
2022-10-19T04:51:38.759Z,139.76
2022-10-19T04:59:31.975Z,140.35
2022-10-19T05:05:03.464Z,142.51
2022-10-19T05:10:34.996Z,142.38
2022-10-19T05:16:06.643Z,141.18
2022-10-19T05:21:38.786Z,141.06
2022-10-19T05:27:10.570Z,141.18
2022-10-19T05:32:42.154Z,140.59
2022-10-19T05:38:13.507Z,140.11
2022-10-19T05:43:44.975Z,140.11
2022-10-19T05:49:16.430Z,140.59
2022-10-19T05:54:48.037Z,140.00
2022-10-19T06:00:19.760Z,139.06
2022-10-19T06:05:51.774Z,136.78
2022-10-19T06:11:23.601Z,136.34
2022-10-19T06:16:55.301Z,138.03
2022-10-19T06:22:27.210Z,137.80
2022-10-19T06:27:58.883Z,137.12
2022-10-19T06:33:30.525Z,136.56
2022-10-19T06:39:02.004Z,136.56
2022-10-19T06:44:33.765Z,136.90
2022-10-19T06:50:05.382Z,136.90
2022-10-19T06:55:36.850Z,136.11
2022-10-19T07:01:08.616Z,136.34
2022-10-19T07:06:40.460Z,136.00
2022-10-19T07:12:11.926Z,136.56
2022-10-19T07:17:43.495Z,137.23
2022-10-19T07:23:15.614Z,136.56
2022-10-19T07:28:47.215Z,136.34
2022-10-19T07:34:19.090Z,137.35
2022-10-19T07:39:50.558Z,137.69
2022-10-19T07:45:22.236Z,135.67
2022-10-19T07:50:53.612Z,133.39
2022-10-19T07:56:25.342Z,134.04
2022-10-19T08:01:56.696Z,133.93
2022-10-19T08:07:28.558Z,134.36
2022-10-19T08:13:00.616Z,134.25
2022-10-19T08:24:03.895Z,134.25
2022-10-19T08:29:35.650Z,138.95
2022-10-19T08:35:10.765Z,138.26
2022-10-19T08:40:39.226Z,140.70
2022-10-19T08:46:10.921Z,141.06
2022-10-19T08:51:42.274Z,141.06
2022-10-19T08:57:14.459Z,140.94
2022-10-19T09:02:46.455Z,140.82
2022-10-19T09:08:18.221Z,142.38
2022-10-19T09:14:05.928Z,144.86
2022-10-19T09:19:21.692Z,147.81
2022-10-19T09:24:53.932Z,150.88
2022-10-19T09:30:25.850Z,153.94
2022-10-19T09:35:57.737Z,155.23
2022-10-19T09:41:29.679Z,151.43
2022-10-19T09:47:02.103Z,153.24
2022-10-19T09:52:34.022Z,153.38
2022-10-19T09:58:07.357Z,156.54
2022-10-19T10:03:38.998Z,157.43
2022-10-19T10:09:10.982Z,158.63
2022-10-19T10:14:43.017Z,157.43
2022-10-19T10:25:46.328Z,157.73
2022-10-19T10:31:18.361Z,157.73
2022-10-19T10:36:52.952Z,159.08
2022-10-19T10:42:26.656Z,158.93
2022-10-19T10:48:01.294Z,158.63
2022-10-19T10:53:32.518Z,159.69
2022-10-19T10:59:04.392Z,162.17
2022-10-19T11:04:35.997Z,162.80
2022-10-19T11:10:07.741Z,163.12
2022-10-19T11:15:39.265Z,161.70
2022-10-19T11:21:11.003Z,162.17
2022-10-19T11:26:43.605Z,164.73
2022-10-19T11:32:15.232Z,164.09
2022-10-19T11:37:50.105Z,161.86
2022-10-19T11:43:19.696Z,161.70
2022-10-19T11:48:54.179Z,157.58
2022-10-19T11:54:22.516Z,155.38
2022-10-19T11:59:57.586Z,155.09
2022-10-19T12:05:26.512Z,153.94
2022-10-19T12:10:58.427Z,155.38
2022-10-19T12:16:30.558Z,157.43
2022-10-19T12:22:01.754Z,157.43
2022-10-19T12:27:34.224Z,158.48
2022-10-19T12:33:05.367Z,158.32
2022-10-19T12:38:38.762Z,158.93
2022-10-19T12:44:08.673Z,157.43
2022-10-19T12:49:40.361Z,159.69
2022-10-19T12:55:12.189Z,157.58
2022-10-19T13:00:44.199Z,157.58
2022-10-19T13:06:15.603Z,155.81
2022-10-19T13:11:47.529Z,153.24
2022-10-19T13:17:19.314Z,150.74
2022-10-19T13:22:50.952Z,149.80
2022-10-19T13:28:23.061Z,148.86
2022-10-19T13:39:24.631Z,147.29
2022-10-19T13:44:56.565Z,147.42
2022-10-19T13:50:28.378Z,143.98
2022-10-19T13:56:00.494Z,142.26
2022-10-19T14:01:32.791Z,141.66
2022-10-19T14:12:34.241Z,140.82
2022-10-19T14:18:06.252Z,142.75
2022-10-19T14:23:37.855Z,145.62
2022-10-19T14:29:09.738Z,144.61
2022-10-19T14:34:41.627Z,145.49
2022-10-19T14:40:13.435Z,146.64
2022-10-19T14:45:45.293Z,147.42
2022-10-19T14:51:17.320Z,149.00
2022-10-19T14:56:49.135Z,150.47
2022-10-19T15:02:20.959Z,150.88
2022-10-19T15:07:53.120Z,151.84
2022-10-19T15:13:24.900Z,152.68
2022-10-19T15:24:28.934Z,153.38
2022-10-19T15:30:01.066Z,154.80
2022-10-19T15:41:02.774Z,154.80
2022-10-19T15:46:35.038Z,153.52
2022-10-19T15:57:39.631Z,155.81
2022-10-19T16:03:11.169Z,156.69
2022-10-19T16:08:43.160Z,156.69
2022-10-19T16:19:47.350Z,158.03
2022-10-19T16:25:19.500Z,159.99
2022-10-19T16:30:51.468Z,159.84
2022-10-19T16:36:23.309Z,161.54
2022-10-19T16:41:55.572Z,161.08
2022-10-19T16:47:27.610Z,162.80
2022-10-19T16:53:00.298Z,165.55
2022-10-19T16:58:32.450Z,167.21
2022-10-19T17:04:04.632Z,169.42
2022-10-19T17:09:41.729Z,168.39
2022-10-19T17:20:40.536Z,169.93
2022-10-19T17:26:12.328Z,172.75
2022-10-19T17:31:43.849Z,173.83
2022-10-19T17:37:15.853Z,175.10
2022-10-19T17:42:47.808Z,176.40
2022-10-19T17:48:19.847Z,178.86
2022-10-19T17:53:51.926Z,180.80
2022-10-19T17:59:34.953Z,182.78
2022-10-19T18:04:55.465Z,182.98
2022-10-19T18:10:27.202Z,183.99
2022-10-19T18:12:44.703Z,186.89
2022-10-19T18:18:16.226Z,189.70
2022-10-19T18:23:54.124Z,189.70
2022-10-19T18:29:26.104Z,189.70
2022-10-19T18:34:57.870Z,189.81
2022-10-19T18:40:35.386Z,191.25
2022-10-19T18:46:07.303Z,191.36
2022-10-19T18:57:08.740Z,193.39
2022-10-19T19:02:46.710Z,190.80
2022-10-19T19:10:33.171Z,188.50
2022-10-19T19:16:04.981Z,184.79
2022-10-19T19:21:38.210Z,185.52
2022-10-19T19:27:10.182Z,185.73
2022-10-19T19:32:42.318Z,191.81
2022-10-19T19:38:14.389Z,195.46
2022-10-19T19:49:15.789Z,190.36
2022-10-19T19:54:47.713Z,193.73
2022-10-19T20:05:49.482Z,182.58
2022-10-19T20:11:21.783Z,177.34
2022-10-19T20:16:53.780Z,177.90
2022-10-19T20:27:55.247Z,179.82
2022-10-19T20:33:27.164Z,179.63
2022-10-19T20:38:59.198Z,176.59
2022-10-19T20:44:30.810Z,171.33
2022-10-19T20:55:34.387Z,169.24
2022-10-19T21:03:26.310Z,169.76
2022-10-19T21:14:28.493Z,173.29
2022-10-19T21:25:30.910Z,174.19
2022-10-19T21:31:02.855Z,175.10
2022-10-19T21:36:34.813Z,176.21
2022-10-19T21:42:06.653Z,175.84
2022-10-19T21:47:38.557Z,176.96
2022-10-19T21:53:10.300Z,180.02
2022-10-19T21:58:43.043Z,183.99
2022-10-19T22:04:15.064Z,184.89
2022-10-19T22:09:46.670Z,185.62
2022-10-19T22:15:18.632Z,184.60
2022-10-19T22:20:50.306Z,185.31
2022-10-19T22:26:22.262Z,185.62
2022-10-19T22:37:25.541Z,186.24
2022-10-19T22:42:57.709Z,185.62
2022-10-19T22:48:29.959Z,183.78
2022-10-19T22:54:02.043Z,185.21
2022-10-19T22:59:34.473Z,186.04
2022-10-19T23:05:06.806Z,184.99
2022-10-19T23:10:39.011Z,185.41
2022-10-19T23:16:10.877Z,185.73
2022-10-19T23:21:42.897Z,189.37
2022-10-19T23:27:14.674Z,189.59
2022-10-19T23:32:46.269Z,188.39
2022-10-19T23:38:18.069Z,185.83
2022-10-19T23:43:51.717Z,186.24
2022-10-19T23:49:23.500Z,184.39
2022-10-19T23:54:55.305Z,184.79
